Matsumoto/Nagano, Japan
Current Conditions -  °F | °C
As of 9:00 PM on Friday 21 Nov 2014 (Local Time) from RJNT Reporting Station
Clear Clear  
Wind Chill: 48°   Ceiling: Unl
Heat Index: 48°   Visibility: 6mi
Dew Point: 39°   Wind: 2mph
Humidity: 71%   Direction: NA
Pressure: 30.21"   Gusts: NA
Location:  36.25°N, 137.97°E
Report Text: RJNT 211200Z VRB02KT CAVOK 09/04 Q1023
Loading
Personal Weather Stations






























Interactive Weather Map New forecast layout! Learn more

10-Day Weather Forecast

Advertisements
Track Severe Weather on mobile